Tiempo atmosférico en la estación meteorológica de Almazul, Soria (1000 m.)



Fecha
DESCASC
Temp. máxima en grados centígrados (hora)
DESCASC
Temp. mínima en grados centígrados (hora)
DESCASC
Temp. media en grados centígrados
DESCASC
Racha de viento máxima en m/sg (hora)
DESCASC
Velocidad máxima media en intervalos de 10 minutos(hora)
DESCASC
Precipitaciones diarias en mm
DESCASC
Precipitaciones de 00:00 a 06:00 en mm
DESCASC
Precipitaciones de 06:00 a 12:00 en mm
DESCASC
Precipitaciones de 12:00 a 18:00 en mm
DESCASC
Precipitaciones de 18:00 a 24:00 en mm
DESCASC
19-04-2018 18.7 (17:30) 9 (07:40) 13.9 13.61 (15:50) 9.44 (21:10) 0 0 0 0 0
18-04-2018 22.1 (17:20) 5.9 (07:40) 14 10.28 (21:30) 7.78 (21:50) 0 0 0 0 0
17-04-2018 23.1 (18:30) 2.1 (07:40) 12.6 5.83 (21:00) 4.72 (21:00) 0 0 0 0 0
16-04-2018 13.9 (19:10) 5 (08:10) 9.4 12.22 (01:50) 8.33 (10:50) 6.6 6.4 0.2 0 0
15-04-2018 13.5 (15:50) 3.3 (00:00) 8.4 10.28 (14:50) 7.22 (14:50) 2.8 0 0 0.4 2.4
14-04-2018 15.2 (17:50) 0.6 (00:00) 7.9 5.83 (15:20) 3.61 (21:30) 0 0 0 0 0
13-04-2018 13.4 (18:10) 3.9 (00:00) 8.6 8.61 (11:30) 6.39 (11:50) 2 1.8 0.2 0 0
12-04-2018 11.4 (17:00) 3.2 (00:00) 7.3 13.06 (08:00) 9.44 (08:00) 0 0 0 0 0
11-04-2018 6.2 (17:50) -0.1 (00:00) 3 18.61 (12:10) 12.5 (13:00) 4 1.4 2.4 0.2 0
10-04-2018 4.3 (08:40) 2 (00:00) 3.2 14.44 (13:10) 10.83 (12:50) 7 0.6 1.8 2.2 2.4
09-04-2018 7.7 (14:50) 1.8 (00:00) 4.7 14.17 (15:20) 10.56 (15:30) 5 0 3 0 2
08-04-2018 10.9 (17:30) 3.2 (00:00) 7 11.94 (16:50) 8.33 (17:40) 0.6 0.4 0.2 0 0
07-04-2018 9.7 (00:00) 3.7 (00:00) 6.7 13.61 (02:30) 10 (02:20) 24 9 7.6 1.6 5.8
06-04-2018 17.2 (15:10) 5.3 (00:00) 11.3 13.89 (18:30) 10 (21:20) 5.8 0 0 0.4 5.4
05-04-2018 17.6 (17:50) 4.5 (00:00) 11.1 10.83 (00:50) 6.67 (00:40) 0 0 0 0 0
04-04-2018 11.4 (15:40) 4.3 (00:00) 7.8 18.61 (16:00) 11.39 (16:00) 4 2.6 0 0.6 0.8
03-04-2018 14.3 (18:30) 7 (00:00) 10.7 19.72 (13:50) 15 (14:30) 0.2 0.2 0 0 0
02-04-2018 16.7 (17:30) 5.8 (00:00) 11.3 13.06 (18:10) 9.17 (18:50) 0 0 0 0 0
01-04-2018 -- (--) -- (--) -- -- (--) -- (--) -- -- -- -- 0
31-03-2018 -- (--) -- (--) -- -- (--) -- (--) -- 0.8 -- -- 0
30-03-2018 8.4 (16:50) -0.1 (00:00) 4.1 18.06 (04:20) 11.94 (22:40) 1.2 0 1.2 0 0
29-03-2018 12.2 (19:10) 4.7 (00:00) 8.4 14.17 (01:50) 10.56 (01:50) 0 0 0 0 0
28-03-2018 18 (15:20) 4.1 (00:00) 11 15 (18:20) 10.56 (17:10) 0 0 0 0 0
27-03-2018 15.8 (18:10) 3.4 (00:00) 9.6 11.11 (11:10) 8.33 (12:10) 0 0 0 0 0
26-03-2018 9.4 (16:40) 0.7 (00:00) 5 15.83 (10:50) 12.5 (11:00) 0 0 0 0 0
25-03-2018 7.7 (16:10) 0.8 (00:00) 4.2 13.61 (17:50) 9.72 (06:50) 0 0 0 0 0
24-03-2018 7.2 (18:10) -0.2 (00:00) 3.5 25.28 (01:40) 16.94 (01:40) 3.2 2.6 0 0.6 0
23-03-2018 11.1 (15:40) 0.1 (00:00) 5.6 13.89 (10:10) 10.56 (02:10) 1.6 0 0 0 1.6

Gráficas

Temp. máximas Temp. mínimas Temp. medias Precipitaciones Rachas de viento máximas Velocidades máximas media en intervalos de 10 minutos

Datos horarios

Fecha y hora oficial Temperatura (ºC) Velocidad del viento (km/h) Dirección del viento Racha (km/h) Dirección de racha Precipitación (mm) Presión (hPa) Tendencia (hPa) Humedad (%)
2018-04-21 23:00:00 12.5 5 Sudeste 13 Sudeste 0 -- -- 73
2018-04-21 22:00:00 13.7 12 Sudeste 31 Sudeste 0 -- -- 71
2018-04-21 21:00:00 14.2 24 Sudeste 36 Sudeste 0 -- -- 69
2018-04-21 20:00:00 15.2 13 Sur 23 Sudeste 0 -- -- 65
2018-04-21 19:00:00 16.4 17 Sur 27 Sur 0 -- -- 53
2018-04-21 18:00:00 17.2 17 Sur 26 Sur 0 -- -- 47
2018-04-21 17:00:00 17.4 8 Sur 21 Sur 0 -- -- 43
2018-04-21 16:00:00 18.3 3 Sudeste 12 Sur 0 -- -- 39
2018-04-21 15:00:00 17.5 7 Sudoeste 19 Sudoeste 0 -- -- 42
2018-04-21 14:00:00 17.1 12 Sudoeste 27 Sudoeste 0 -- -- 42
2018-04-21 13:00:00 16.5 14 Sur 26 Sudoeste 0 -- -- 50
2018-04-21 12:00:00 15.7 17 Sudoeste 30 Sudoeste 0 -- -- 55
2018-04-21 11:00:00 14.3 16 Sur 22 Sur 0 -- -- 59
2018-04-21 10:00:00 13.6 6 Sudoeste 12 Sur 0 -- -- 67
2018-04-21 09:00:00 10.4 4 Sudoeste 18 Sudeste 0 -- -- 75
2018-04-21 08:00:00 8.1 17 Sudeste 21 Sudeste 0 -- -- 84
2018-04-21 07:00:00 7.1 10 Sudeste 20 Sudeste 0 -- -- 86
2018-04-21 06:00:00 7.3 6 Sur 10 Sur 0 -- -- 85
2018-04-21 05:00:00 7.5 6 Sur 10 Sudeste 0 -- -- 83
2018-04-21 04:00:00 8.2 9 Sur 12 Sudeste 0 -- -- 79
2018-04-21 03:00:00 8.7 4 Sur 10 Sur 0 -- -- 75
2018-04-21 02:00:00 8.1 8 Sur 15 Sur 0 -- -- 77
2018-04-21 01:00:00 9.8 8 Sur 17 Sudeste 0 -- -- 71
2018-04-21 00:00:00 11.3 13 Sudeste 24 Sudeste 0 -- -- 68
2018-04-20 23:00:00 11.3 20 Sudeste 29 Sudeste 0 -- -- 72
2018-04-20 22:00:00 13.1 22 Sudeste 35 Sudeste 0 -- -- 64
2018-04-20 21:00:00 14.5 23 Sudeste 40 Sudeste 0 -- -- 57
2018-04-20 20:00:00 16.2 34 Sudeste 45 Sur 0 -- -- 52
2018-04-20 19:00:00 16.9 32 Sudeste 45 Sudeste 0 -- -- 53
2018-04-20 18:00:00 17.8 30 Sudeste 46 Sudeste 0 -- -- 52
2018-04-20 17:00:00 18 30 Sudeste 46 Sur 0 -- -- 48
2018-04-20 16:00:00 17.8 30 Sur 64 Sur 0 -- -- 48
2018-04-20 15:00:00 17.3 29 Sur 48 Sur 0 -- -- 52
2018-04-20 14:00:00 16.5 25 Sur 42 Sur 0 -- -- 54
2018-04-20 13:00:00 15.8 26 Sur 40 Sur 0 -- -- 55
2018-04-20 12:00:00 15.1 28 Sur 40 Sur 0 -- -- 57
2018-04-20 11:00:00 13.8 26 Sur 38 Sur 0 -- -- 61
2018-04-20 10:00:00 12.4 16 Sur 24 Sur 0 -- -- 70
2018-04-20 09:00:00 12.5 2 Sudoeste 10 Sudeste 0 -- -- 69
2018-04-20 08:00:00 8 5 Sudeste 14 Sudeste 0 -- -- 83
2018-04-20 07:00:00 7.6 13 Sudeste 13 Sudeste 0 -- -- 85
2018-04-20 06:00:00 7.1 9 Sudeste 10 Sudeste 0 -- -- 86
2018-04-20 05:00:00 7.4 3 Norte 13 Sudeste 0 -- -- 84
2018-04-20 04:00:00 10 10 Sudeste 15 Sudeste 0 -- -- 75
2018-04-20 03:00:00 9.6 12 Sudeste 19 Sudeste 0 -- -- 78
2018-04-20 02:00:00 10.2 5 Sur 25 Sudeste 0 -- -- 76
2018-04-20 01:00:00 10.5 10 Sur 29 Sudeste 0 -- -- 78
2018-04-20 00:00:00 11.7 21 Sudeste 27 Sudeste 0 -- -- 74
2018-04-19 23:00:00 12.5 22 Sudeste 37 Sudeste 0 -- -- 71
2018-04-19 22:00:00 13.4 28 Sudeste 44 Sudeste 0 -- -- 67
2018-04-19 21:00:00 14.5 32 Sudeste 47 Sudeste 0 -- -- 62
2018-04-19 20:00:00 16.2 30 Sudeste 46 Sudeste 0 -- -- 59
2018-04-19 19:00:00 17.5 28 Sudeste 45 Sudeste 0 -- -- 56
2018-04-19 18:00:00 18.1 29 Sudeste 41 Sudeste 0 -- -- 51
2018-04-19 17:00:00 18.3 28 Sudeste 46 Sudeste 0 -- -- 49
2018-04-19 16:00:00 18 32 Sudeste 49 Sudeste 0 -- -- 46
2018-04-19 15:00:00 18 27 Sur 39 Sudeste 0 -- -- 47
2018-04-19 14:00:00 17.4 24 Sudeste 38 Sur 0 -- -- 49
2018-04-19 13:00:00 17 22 Sudeste 41 Sudoeste 0 -- -- 45
2018-04-19 12:00:00 16.6 22 Sur 35 Sur 0 -- -- 44
2018-04-19 11:00:00 16.3 17 Sudeste 27 Sudeste 0 -- -- 46
2018-04-19 10:00:00 18.4 3 Sudoeste 6 Sur 0 -- -- 45
2018-04-19 09:00:00 12.4 5 Nordeste 12 Sudeste 0 -- -- 66
2018-04-19 08:00:00 9.7 9 Sudeste 12 Sudeste 0 -- -- 70
2018-04-19 07:00:00 9.8 8 Sudeste 15 Sudeste 0 -- -- 69
2018-04-19 06:00:00 11.1 9 Sur 26 Sudeste 0 -- -- 63
2018-04-19 05:00:00 11.1 8 Sur 15 Sudeste 0 -- -- 66
2018-04-19 04:00:00 11.5 11 Sudeste 21 Sudeste 0 -- -- 64
2018-04-19 03:00:00 11.7 9 Sudeste 24 Sur 0 -- -- 65
2018-04-19 02:00:00 12.1 21 Sur 41 Sur 0 -- -- 64
2018-04-19 01:00:00 13.5 30 Sudeste 36 Sudeste 0 -- -- 59
2018-04-19 00:00:00 13.7 25 Sudeste 32 Sudeste 0 -- -- 62
2018-04-18 23:00:00 14.3 26 Sudeste 37 Sudeste 0 -- -- 61
2018-04-18 22:00:00 15.2 26 Sudeste 37 Sudeste 0 -- -- 59
2018-04-18 21:00:00 16.2 26 Sudeste 35 Sur 0 -- -- 58
2018-04-18 20:00:00 17.7 21 Sudeste 35 Sudeste 0 -- -- 53
2018-04-18 19:00:00 19.9 23 Sur 32 Sur 0 -- -- 44
2018-04-18 18:00:00 21.2 21 Sur 30 Sudoeste 0 -- -- 41
2018-04-18 17:00:00 21.8 19 Sur 36 Sur 0 -- -- 38
2018-04-18 16:00:00 21.8 18 Sudoeste 31 Sudoeste 0 -- -- 39
2018-04-18 15:00:00 20.4 20 Sur 31 Sur 0 -- -- 40
2018-04-18 14:00:00 19.4 19 Sudoeste 26 Sudoeste 0 -- -- 37
2018-04-18 13:00:00 18.4 15 Sudoeste 23 Sudoeste 0 -- -- 49
2018-04-18 12:00:00 17.4 13 Sudoeste 18 Sudoeste 0 -- -- 55
2018-04-18 11:00:00 17.7 4 Sudoeste 7 Sudoeste 0 -- -- 48
2018-04-18 10:00:00 13.2 6 Nordeste 11 Nordeste 0 -- -- 68
2018-04-18 09:00:00 10.3 4 Nordeste 7 Nordeste 0 -- -- 73
2018-04-18 08:00:00 6.8 6 Nordeste 10 Sudeste 0 -- -- 80
2018-04-18 07:00:00 7.6 6 Sudeste 12 Sudeste 0 -- -- 76
2018-04-18 06:00:00 7.8 2 Sudeste 14 Sudeste 0 -- -- 78
2018-04-18 05:00:00 8.8 9 Sudeste 13 Sudeste 0 -- -- 74
2018-04-18 04:00:00 7.4 7 Nordeste 12 Sudeste 0 -- -- 83
2018-04-18 03:00:00 9.8 0 Calma 4 Sur 0 -- -- 71
2018-04-18 02:00:00 9.9 0 Calma 9 Nordeste 0 -- -- 73
2018-04-18 01:00:00 9.6 6 Este 9 Este 0 -- -- 78
2018-04-18 00:00:00 11.8 6 Sudeste 15 Sudeste 0 -- -- 63
2018-04-17 23:00:00 12.5 16 Sudeste 18 Sudeste 0 -- -- 62
2018-04-17 22:00:00 13.6 12 Sur 19 Sudeste 0 -- -- 58
2018-04-17 21:00:00 15.4 17 Sudeste 21 Sudeste 0 -- -- 54
2018-04-17 20:00:00 20.8 4 Nordeste 9 Nordeste 0 -- -- 39
2018-04-17 19:00:00 21.4 6 Este 10 Sur 0 -- -- 35
2018-04-17 18:00:00 22 6 Sur 12 Norte 0 -- -- 29
2018-04-17 17:00:00 20.6 6 Nordeste 16 Norte 0 -- -- 31
2018-04-17 16:00:00 19.8 9 Nordeste 17 Nordeste 0 -- -- 35
2018-04-17 15:00:00 18.2 6 Nordeste 12 Nordeste 0 -- -- 43
2018-04-17 14:00:00 16.9 5 Oeste 12 Nordeste 0 -- -- 45
2018-04-17 13:00:00 15.1 4 Norte 19 Norte 0 -- -- 54
2018-04-17 12:00:00 12.7 8 Norte 14 Norte 0 -- -- 68
2018-04-17 11:00:00 10.7 11 Norte 16 Norte 0 -- -- 69
2018-04-17 10:00:00 10 3 Este 4 Este 0 -- -- 71
2018-04-17 09:00:00 9.4 0 Calma 4 Nordeste 0 -- -- 69
2018-04-17 08:00:00 2.8 4 Nordeste 7 Nordeste 0 -- -- 92
2018-04-17 07:00:00 3.5 4 Norte 6 Norte 0 -- -- 92
2018-04-17 06:00:00 3.9 0 Calma 8 Nordeste 0 -- -- 91
2018-04-17 05:00:00 4.1 6 Nordeste 12 Nordeste 0 -- -- 90
2018-04-17 04:00:00 4.6 8 Nordeste 12 Norte 0 -- -- 89
2018-04-17 03:00:00 5 4 Nordeste 13 Norte 0 -- -- 87
2018-04-17 02:00:00 6.9 5 Norte 11 Nordeste 0 -- -- 80
2018-04-17 01:00:00 6.4 2 Norte 19 Norte 0 -- -- 83
2018-04-17 00:00:00 7.6 12 Norte 23 Norte 0 -- -- 78
2018-04-16 23:00:00 8.2 11 Norte 21 Norte 0 -- -- 76
2018-04-16 22:00:00 8.7 13 Norte 24 Noroeste 0 -- -- 75
2018-04-16 21:00:00 10.2 16 Norte 31 Noroeste 0 -- -- 69
2018-04-16 20:00:00 12.2 15 Norte 23 Norte 0 -- -- 64
2018-04-16 19:00:00 13 6 Este 18 Nordeste 0 -- -- 63
2018-04-16 18:00:00 12.8 13 Norte 22 Norte 0 -- -- 63
2018-04-16 17:00:00 11.9 13 Este 35 Nordeste 0 -- -- 64
2018-04-16 16:00:00 12.2 19 Nordeste 33 Nordeste 0 -- -- 62
2018-04-16 15:00:00 10.5 25 Este 36 Este 0 -- -- 70
2018-04-16 14:00:00 10 21 Este 40 Norte 0 -- -- 68
2018-04-16 13:00:00 9.6 25 Norte 39 Norte 0 -- -- 72
2018-04-16 12:00:00 9.2 24 Nordeste 38 Norte 0 -- -- 75
2018-04-16 11:00:00 7.6 29 Norte 38 Norte 0 -- -- 74
2018-04-16 10:00:00 7.4 21 Norte 29 Norte 0 -- -- 83
2018-04-16 09:00:00 5.5 18 Norte 36 Noroeste 0 -- -- 94
2018-04-16 08:00:00 5.1 24 Noroeste 37 Noroeste 0.2 -- -- 95
2018-04-16 07:00:00 5.5 21 Noroeste 33 Noroeste 0 -- -- 92
2018-04-16 06:00:00 6 10 Noroeste 31 Norte 0 -- -- 94
2018-04-16 05:00:00 6 19 Norte 31 Noroeste 1.6 -- -- 96
2018-04-16 04:00:00 5.9 20 Noroeste 36 Noroeste 3 -- -- 94
2018-04-16 03:00:00 6.6 26 Noroeste 42 Noroeste 0 -- -- 89
2018-04-16 02:00:00 7.6 24 Oeste 44 Sudoeste 1.2 -- -- 94
2018-04-16 01:00:00 9.5 14 Sur 29 Sudoeste 0.6 -- -- 96
2018-04-16 00:00:00 9.6 11 Sur 17 Sur 0 -- -- 93
2018-04-15 23:00:00 9.5 9 Sur 16 Sur 0.8 -- -- 95
2018-04-15 22:00:00 9.7 13 Sur 16 Sur 0.4 -- -- 93
2018-04-15 21:00:00 10.5 8 Sudoeste 14 Oeste 0 -- -- 92
2018-04-15 20:00:00 11.1 5 Oeste 35 Noroeste 1.2 -- -- 90
2018-04-15 19:00:00 12.8 8 Sudoeste 13 Sudoeste 0 -- -- 81
2018-04-15 18:00:00 13.4 4 Sudoeste 13 Noroeste 0 -- -- 76
2018-04-15 17:00:00 12.8 12 Norte 27 Noroeste 0.4 -- -- 78
2018-04-15 16:00:00 13.3 18 Noroeste 35 Noroeste 0 -- -- 69
2018-04-15 15:00:00 12.7 23 Noroeste 37 Noroeste 0 -- -- 73
2018-04-15 14:00:00 13.2 21 Noroeste 35 Noroeste 0 -- -- 70
2018-04-15 13:00:00 11.6 20 Noroeste 32 Noroeste 0 -- -- 75
2018-04-15 12:00:00 10.3 19 Noroeste 31 Noroeste 0 -- -- 75
2018-04-15 11:00:00 8.9 15 Noroeste 24 Oeste 0 -- -- 81
2018-04-15 10:00:00 8.2 8 Noroeste 14 Noroeste 0 -- -- 84
2018-04-15 09:00:00 6.3 4 Noroeste 9 Noroeste 0 -- -- 86
2018-04-15 08:00:00 5.9 6 Norte 9 Norte 0 -- -- 83
2018-04-15 07:00:00 4.6 3 Norte 11 Noroeste 0 -- -- 84
2018-04-15 06:00:00 4 3 Norte 12 Noroeste 0 -- -- 88
2018-04-15 05:00:00 4.4 0 Calma 5 Norte 0 -- -- 86
2018-04-15 04:00:00 4.7 3 Sur 4 Sur 0 -- -- 86
2018-04-15 03:00:00 5.1 0 Calma 5 Sudeste 0 -- -- 83
2018-04-15 02:00:00 6.1 0 Calma 3 Sudeste 0 -- -- 80
2018-04-15 01:00:00 6 0 Calma 2 Sudeste 0 -- -- 83
2018-04-15 00:00:00 6.9 0 Calma 7 Sudeste 0 -- -- 79
2018-04-14 23:00:00 8 5 Sudeste 13 Sudeste 0 -- -- 74
2018-04-14 22:00:00 9.3 8 Sudeste 16 Sudeste 0 -- -- 70
2018-04-14 21:00:00 10.8 0 Calma 11 Oeste 0 -- -- 59
2018-04-14 20:00:00 12.3 4 Norte 12 Norte 0 -- -- 55
2018-04-14 19:00:00 14.2 6 Oeste 15 Noroeste 0 -- -- 48
2018-04-14 18:00:00 13.8 8 Norte 17 Norte 0 -- -- 45
2018-04-14 17:00:00 14.1 6 Norte 21 Oeste 0 -- -- 46
2018-04-14 16:00:00 12.3 7 Oeste 21 Noroeste 0 -- -- 54
2018-04-14 15:00:00 12.5 6 Noroeste 16 Oeste 0 -- -- 55
2018-04-14 14:00:00 11.2 8 Oeste 13 Oeste 0 -- -- 65
2018-04-14 13:00:00 11.6 4 Nordeste 13 Noroeste 0 -- -- 63
2018-04-14 12:00:00 11.6 4 Oeste 16 Noroeste 0 -- -- 61
2018-04-14 11:00:00 10 5 Nordeste 12 Norte 0 -- -- 74
2018-04-14 10:00:00 7.4 5 Norte 10 Norte 0 -- -- 80
2018-04-14 09:00:00 4 4 Este 6 Norte 0 -- -- 93
2018-04-14 08:00:00 1.3 5 Nordeste 12 Nordeste 0 -- -- 98
2018-04-14 07:00:00 0.8 8 Nordeste 11 Nordeste 0 -- -- 98
2018-04-14 06:00:00 1.1 7 Nordeste 9 Norte 0 -- -- 97
2018-04-14 05:00:00 1.6 9 Norte 10 Norte 0 -- -- 96
2018-04-14 04:00:00 2.3 5 Norte 12 Este 0 -- -- 92
2018-04-14 03:00:00 2.8 4 Nordeste 12 Este 0 -- -- 92
2018-04-14 02:00:00 3.1 2 Nordeste 9 Este 0 -- -- 91
2018-04-14 01:00:00 3.8 4 Nordeste 9 Norte 0 -- -- 90
2018-04-14 00:00:00 4.8 7 Norte 15 Noroeste 0 -- -- 89
2018-04-13 23:00:00 6.7 9 Noroeste 18 Este 0 -- -- 79
2018-04-13 22:00:00 6.6 8 Noroeste 20 Noroeste 0 -- -- 81
2018-04-13 21:00:00 8.8 13 Noroeste 20 Noroeste 0 -- -- 70
2018-04-13 20:00:00 12.4 5 Sudoeste 19 Sudoeste 0 -- -- 51
2018-04-13 19:00:00 12.8 14 Sur 22 Sudoeste 0 -- -- 48
2018-04-13 18:00:00 11.6 7 Sudoeste 26 Sudoeste 0 -- -- 49
2018-04-13 17:00:00 10.9 13 Oeste 25 Sudoeste 0 -- -- 55
2018-04-13 16:00:00 10.8 10 Sudoeste 31 Sudoeste 0 -- -- 53
2018-04-13 15:00:00 9.9 11 Sudoeste 23 Oeste 0 -- -- 61
2018-04-13 14:00:00 7.4 16 Oeste 23 Noroeste 0 -- -- 76
2018-04-13 13:00:00 7.4 10 Oeste 26 Oeste 0 -- -- 74
2018-04-13 12:00:00 6.1 19 Oeste 31 Oeste 0 -- -- 82
2018-04-13 11:00:00 4.2 17 Sudoeste 28 Sudoeste 0.2 -- -- 91
2018-04-13 10:00:00 4.4 19 Sur 25 Sudoeste 0 -- -- 91
2018-04-13 09:00:00 4.2 15 Sur 17 Sur 0 -- -- 93
2018-04-13 08:00:00 3.9 12 Sur 21 Sur 0 -- -- 96
2018-04-13 07:00:00 3.9 13 Sur 18 Sur 0 -- -- 96
2018-04-13 06:00:00 3.9 13 Sur 17 Sur 0 -- -- 94
2018-04-13 05:00:00 4 7 Sur 14 Sur 0 -- -- 92
2018-04-13 04:00:00 3.9 12 Sur 24 Sur 0.8 -- -- 93
2018-04-13 03:00:00 4.4 13 Sur 22 Sudoeste 0.8 -- -- 92
2018-04-13 02:00:00 4.9 18 Sur 27 Sur 0.2 -- -- 89
2018-04-13 01:00:00 5.7 14 Sur 19 Sur 0 -- -- 84
2018-04-13 00:00:00 5.9 12 Sur 18 Sur 0 -- -- 82
2018-04-12 23:00:00 6.3 12 Sur 18 Sur 0 -- -- 77
2018-04-12 22:00:00 6.5 10 Sur 13 Sur 0 -- -- 75
2018-04-12 21:00:00 7 8 Sur 21 Sudoeste 0 -- -- 70
2018-04-12 20:00:00 7.7 18 Sudoeste 36 Sudoeste 0 -- -- 63
2018-04-12 19:00:00 8.9 22 Oeste 41 Sudoeste 0 -- -- 64
2018-04-12 18:00:00 9.5 29 Sudoeste 39 Sudoeste 0 -- -- 60
2018-04-12 17:00:00 11.4 20 Oeste 28 Oeste 0 -- -- 57
2018-04-12 16:00:00 9.8 11 Noroeste 24 Oeste 0 -- -- 61
2018-04-12 15:00:00 9.6 12 Noroeste 30 Noroeste 0 -- -- 61
2018-04-12 14:00:00 8.6 21 Noroeste 38 Noroeste 0 -- -- 67
2018-04-12 13:00:00 7 22 Noroeste 37 Noroeste 0 -- -- 75
2018-04-12 12:00:00 6.1 24 Noroeste 41 Oeste 0 -- -- 78
2018-04-12 11:00:00 4.4 26 Noroeste 36 Noroeste 0 -- -- 86
2018-04-12 10:00:00 4.5 28 Noroeste 41 Noroeste 0 -- -- 84
2018-04-12 09:00:00 3.5 23 Noroeste 41 Noroeste 0 -- -- 89
2018-04-12 08:00:00 3.5 34 Noroeste 47 Noroeste 0 -- -- 88
2018-04-12 07:00:00 3.5 28 Noroeste 39 Noroeste 0 -- -- 89
2018-04-12 06:00:00 3.7 24 Noroeste 37 Noroeste 0 -- -- 88
2018-04-12 05:00:00 4 18 Noroeste 37 Noroeste 0 -- -- 88
2018-04-12 04:00:00 4.4 26 Noroeste 37 Noroeste 0 -- -- 84
2018-04-12 03:00:00 4.2 20 Noroeste 35 Noroeste 0 -- -- 86
2018-04-12 02:00:00 4 15 Noroeste 37 Noroeste 0 -- -- 87
2018-04-12 01:00:00 4.8 30 Norte 44 Norte 0 -- -- 81
2018-04-12 00:00:00 5.3 24 Norte 52 Norte 0 -- -- 77
2018-04-11 23:00:00 4.9 36 Norte 54 Norte 0 -- -- 82
2018-04-11 22:00:00 5.2 32 Norte 48 Noroeste 0 -- -- 80
2018-04-11 21:00:00 5.4 29 Norte 44 Norte 0 -- -- 80
2018-04-11 20:00:00 5.7 24 Norte 44 Norte 0 -- -- 78
2018-04-11 19:00:00 5.8 27 Noroeste 50 Norte 0 -- -- 78
2018-04-11 18:00:00 6.2 39 Norte 53 Norte 0 -- -- 74
2018-04-11 17:00:00 5.7 30 Norte 55 Norte 0 -- -- 77
2018-04-11 16:00:00 4.9 28 Noroeste 46 Noroeste 0 -- -- 83
2018-04-11 15:00:00 3.9 30 Noroeste 54 Noroeste 0.2 -- -- 87
2018-04-11 14:00:00 3.6 30 Norte 60 Norte 0 -- -- 85
2018-04-11 13:00:00 3.5 45 Norte 67 Norte 0 -- -- 83
2018-04-11 12:00:00 2.5 45 Norte 62 Norte 0.2 -- -- 86
2018-04-11 11:00:00 1.4 41 Norte 56 Norte 0.4 -- -- 93
2018-04-11 10:00:00 0.9 31 Norte 48 Norte 0.6 -- -- 95
2018-04-11 09:00:00 0.7 23 Norte 34 Norte 0.4 -- -- 98
2018-04-11 08:00:00 0.1 0 Calma -- -- 0.4 -- -- 99
2018-04-11 07:00:00 0.1 5 Norte 27 Norte 0.4 -- -- 99
2018-04-11 06:00:00 0.1 18 Norte 24 Norte 0.2 -- -- 99
2018-04-11 05:00:00 -0.1 8 Norte 16 Norte 0 -- -- 99
2018-04-11 04:00:00 -0.1 13 Norte 27 Norte 0 -- -- 98
2018-04-11 03:00:00 0.2 20 Norte 27 Norte 0.6 -- -- 97
2018-04-11 02:00:00 1.6 18 Norte 25 Norte 0.2 -- -- 96
2018-04-11 01:00:00 1.3 11 Norte 15 Norte 0.4 -- -- 96
2018-04-11 00:00:00 2 4 Nordeste 6 Norte 1 -- -- 94
2018-04-10 23:00:00 2 5 Norte 15 Noroeste 0.6 -- -- 95
2018-04-10 22:00:00 3.4 10 Sur 17 Sur 0.2 -- -- 93
2018-04-10 21:00:00 3.4 14 Sur 21 Sudeste 0.6 -- -- 92
2018-04-10 20:00:00 4 14 Sudeste 17 Sudeste 0 -- -- 90
2018-04-10 19:00:00 4.1 12 Sudoeste 26 Sudoeste 0 -- -- 86
2018-04-10 18:00:00 4 22 Sudoeste 39 Sudoeste 0 -- -- 86
2018-04-10 17:00:00 3.3 26 Sudoeste 45 Sudoeste 1 -- -- 90
2018-04-10 16:00:00 3.8 26 Sudoeste 41 Sudoeste 0.4 -- -- 89
2018-04-10 15:00:00 4.1 34 Sudoeste 47 Sudoeste 0 -- -- 88
2018-04-10 14:00:00 3.8 37 Sudoeste 52 Sudoeste 0.2 -- -- 87
2018-04-10 13:00:00 3.5 38 Sudoeste 50 Sudoeste 0.6 -- -- 89
2018-04-10 12:00:00 4 35 Sudoeste 48 Sudoeste 0.8 -- -- 89
2018-04-10 11:00:00 4 34 Sudoeste 45 Sudoeste 0.8 -- -- 92
2018-04-10 10:00:00 4.1 22 Sudoeste 35 Sudoeste 0.2 -- -- 93
2018-04-10 09:00:00 4 27 Sudoeste 35 Sudoeste 0 -- -- 90
2018-04-10 08:00:00 4.2 20 Oeste 38 Oeste 0 -- -- 91
2018-04-10 07:00:00 4 26 Oeste 40 Oeste 0 -- -- 92
2018-04-10 06:00:00 3.8 23 Oeste 38 Oeste 0 -- -- 92
2018-04-10 05:00:00 3.5 19 Sudoeste 35 Sudoeste 0 -- -- 94
2018-04-10 04:00:00 2.6 13 Oeste 35 Oeste 0.2 -- -- 93
2018-04-10 03:00:00 2.8 9 Sudoeste 19 Oeste 0 -- -- 94
2018-04-10 02:00:00 2.7 14 Oeste 25 Noroeste 0 -- -- 94
2018-04-10 01:00:00 2.2 15 Noroeste 30 Oeste 0.4 -- -- 94
2018-04-10 00:00:00 2.5 15 Noroeste 24 Noroeste 0.4 -- -- 93
2018-04-09 23:00:00 1.9 12 Noroeste 28 Noroeste 1.4 -- -- 93
2018-04-09 22:00:00 2.7 20 Noroeste 30 Noroeste 0.2 -- -- 88
2018-04-09 21:00:00 2.9 12 Oeste 21 Oeste 0 -- -- 90
2018-04-09 20:00:00 3.2 14 Oeste 27 Oeste 0 -- -- 87
2018-04-09 19:00:00 3.3 19 Noroeste 32 Noroeste 0 -- -- 89
2018-04-09 18:00:00 4 25 Oeste 43 Sudoeste 0 -- -- 85
2018-04-09 17:00:00 5.5 35 Oeste 47 Oeste 0 -- -- 79
2018-04-09 16:00:00 6.2 27 Sudoeste 51 Sudoeste 0 -- -- 70
2018-04-09 15:00:00 6.8 32 Oeste 43 Sudoeste 0 -- -- 71
2018-04-09 14:00:00 6.6 25 Oeste 35 Oeste 0 -- -- 68
2018-04-09 13:00:00 6.9 22 Sudoeste 40 Sudoeste 0 -- -- 67
2018-04-09 12:00:00 6.6 27 Sudoeste 39 Sudoeste 0 -- -- 66
2018-04-09 11:00:00 4.8 25 Oeste 32 Oeste 0 -- -- 72
2018-04-09 10:00:00 3.7 18 Oeste 25 Oeste 0 -- -- 84
2018-04-09 09:00:00 2.7 11 Oeste 22 Oeste 0.6 -- -- 90
2018-04-09 08:00:00 2.3 8 Sur 36 Oeste 1.6 -- -- 94
2018-04-09 07:00:00 3.7 17 Oeste 35 Oeste 0.8 -- -- 87
2018-04-09 06:00:00 4.9 2 Sur 14 Sudoeste 0 -- -- 90
2018-04-09 05:00:00 4.8 6 Sudoeste 10 Sudoeste 0 -- -- 89
2018-04-09 04:00:00 5.5 5 Sur 9 Sur 0 -- -- 87
2018-04-09 03:00:00 5.6 8 Sur 13 Sur 0 -- -- 87
2018-04-09 02:00:00 5.9 6 Sur 10 Sur 0 -- -- 85
2018-04-09 01:00:00 5.7 4 Sudeste 11 Sudeste 0 -- -- 84
2018-04-09 00:00:00 5 4 Sudoeste 16 Noroeste 0 -- -- 88
2018-04-08 23:00:00 6.3 14 Noroeste 21 Noroeste 0 -- -- 81
2018-04-08 22:00:00 6.7 13 Noroeste 21 Noroeste 0 -- -- 79
2018-04-08 21:00:00 7.8 12 Noroeste 27 Noroeste 0 -- -- 70
2018-04-08 20:00:00 10.1 17 Noroeste 31 Noroeste 0 -- -- 59
2018-04-08 19:00:00 10.6 24 Noroeste 38 Oeste 0 -- -- 52
2018-04-08 18:00:00 10.3 29 Noroeste 41 Noroeste 0 -- -- 58
2018-04-08 17:00:00 10.4 29 Noroeste 43 Noroeste 0 -- -- 55
2018-04-08 16:00:00 9.6 25 Noroeste 38 Noroeste 0 -- -- 64
2018-04-08 15:00:00 9.2 23 Noroeste 40 Noroeste 0 -- -- 64
2018-04-08 14:00:00 8.8 26 Norte 40 Noroeste 0 -- -- 69
2018-04-08 13:00:00 7.1 25 Noroeste 39 Noroeste 0 -- -- 81
2018-04-08 12:00:00 6.7 27 Noroeste 37 Noroeste 0 -- -- 82
2018-04-08 11:00:00 5.4 27 Noroeste 40 Noroeste 0.2 -- -- 88
2018-04-08 10:00:00 4.5 25 Noroeste 37 Noroeste 0 -- -- 93
2018-04-08 09:00:00 4.1 27 Noroeste 39 Noroeste 0 -- -- 92
2018-04-08 08:00:00 3.7 22 Noroeste 32 Noroeste 0 -- -- 93
2018-04-08 07:00:00 3.2 19 Noroeste 30 Noroeste 0 -- -- 94
2018-04-08 06:00:00 3.6 10 Noroeste 19 Norte 0 -- -- 93
2018-04-08 05:00:00 3.8 0 Calma 7 Noroeste 0 -- -- 92
2018-04-08 04:00:00 3.9 4 Oeste 10 Este 0 -- -- 92
2018-04-08 03:00:00 3.7 3 Sudeste 7 Sur 0.2 -- -- 93
2018-04-08 02:00:00 3.6 3 Noroeste 21 Noroeste 0.2 -- -- 96
2018-04-08 01:00:00 3.6 11 Norte 18 Norte 0 -- -- 95
2018-04-08 00:00:00 3.7 10 Noroeste 15 Noroeste 0 -- -- 95
2018-04-07 23:00:00 4 8 Noroeste 14 Noroeste 0 -- -- 94
2018-04-07 22:00:00 4 8 Norte 21 Noroeste 0.4 -- -- 94
2018-04-07 21:00:00 4 14 Noroeste 30 Noroeste 1 -- -- 94
2018-04-07 20:00:00 4.2 18 Noroeste 45 Noroeste 1.8 -- -- 94
2018-04-07 19:00:00 4.6 21 Noroeste 38 Noroeste 2.6 -- -- 93
2018-04-07 18:00:00 8.2 6 Sudoeste 10 Sudoeste 1.2 -- -- 94
2018-04-07 17:00:00 8.5 7 Sudoeste 14 Sur 0.2 -- -- 93
2018-04-07 16:00:00 8.3 13 Sur 21 Sur 0 -- -- 92
2018-04-07 15:00:00 8.2 12 Sur 18 Sur 0 -- -- 92
2018-04-07 14:00:00 7.8 17 Sur 20 Sudoeste 0 -- -- 91
2018-04-07 13:00:00 8.2 13 Sur 18 Sudeste 0.2 -- -- 90
2018-04-07 12:00:00 8.1 17 Sur 32 Sudeste 0.6 -- -- 91
2018-04-07 11:00:00 6.4 13 Sudeste 21 Sudeste 2 -- -- 97
2018-04-07 10:00:00 6.1 9 Sudeste 20 Sudeste 4 -- -- 97
2018-04-07 09:00:00 6.4 10 Sudeste 24 Sudeste 0.6 -- -- 95
2018-04-07 08:00:00 6.4 20 Sudeste 28 Sudeste 0.4 -- -- 94
2018-04-07 07:00:00 6.4 22 Sudeste 32 Sudeste 0 -- -- 94
2018-04-07 06:00:00 7.2 26 Sudeste 35 Sur 0 -- -- 91
2018-04-07 05:00:00 8.1 18 Sudeste 27 Sudeste 0 -- -- 94
2018-04-07 04:00:00 8.5 19 Sur 45 Sur 1.2 -- -- 95
2018-04-07 03:00:00 8.9 35 Sur 49 Sur 3.4 -- -- 91
2018-04-07 02:00:00 9.4 28 Sur 40 Sur 1.6 -- -- 93
2018-04-07 01:00:00 9.6 24 Sur 32 Sur 2.8 -- -- 93
2018-04-07 00:00:00 9.7 6 Sudeste 38 Sur 4.6 -- -- 93
2018-04-06 23:00:00 10.8 30 Sur 45 Sudeste 0 -- -- 83
2018-04-06 22:00:00 10.5 29 Sudeste 49 Sur 0 -- -- 86
2018-04-06 21:00:00 10.8 32 Sur 44 Sudeste 0 -- -- 84
2018-04-06 20:00:00 11.3 23 Sur 44 Sudeste 0 -- -- 87
2018-04-06 19:00:00 11.1 33 Sudeste 50 Sur 0.8 -- -- 84
2018-04-06 18:00:00 12 30 Sur 42 Sudeste 0.2 -- -- 74
2018-04-06 17:00:00 12.7 18 Sudeste 31 Sur 0 -- -- 66
2018-04-06 16:00:00 14.9 21 Sudoeste 37 Sur 0.2 -- -- 57
2018-04-06 15:00:00 17.1 20 Sur 29 Sudoeste 0 -- -- 41
2018-04-06 14:00:00 14.9 17 Sur 28 Sur 0 -- -- 44
2018-04-06 13:00:00 13.7 21 Sur 28 Sur 0 -- -- 48
2018-04-06 12:00:00 13.3 15 Sur 22 Sur 0 -- -- 47
2018-04-06 11:00:00 12.4 10 Sur 14 Sur 0 -- -- 55
2018-04-06 10:00:00 11.8 3 Oeste 5 Sudoeste 0 -- -- 58
2018-04-06 09:00:00 9.1 3 Sudoeste 14 Sudeste 0 -- -- 68
2018-04-06 08:00:00 5.6 2 Sur 15 Sudeste 0 -- -- 77
2018-04-06 07:00:00 5.4 2 Sudeste 10 Sudeste 0 -- -- 78
2018-04-06 06:00:00 6.2 6 Sur 14 Sudeste 0 -- -- 73
2018-04-06 05:00:00 6.4 7 Sudeste 14 Sur 0 -- -- 74
2018-04-06 04:00:00 6 0 Calma 6 Sudeste 0 -- -- 79
2018-04-06 03:00:00 5.8 0 Calma 13 Sur 0 -- -- 81
2018-04-06 02:00:00 7 0 Calma 9 Sudeste 0 -- -- 75
2018-04-06 01:00:00 8.8 4 Sudeste 11 Sudeste 0 -- -- 69
2018-04-06 00:00:00 9.1 8 Sur 18 Sudeste 0 -- -- 68
2018-04-05 23:00:00 10.1 15 Sudeste 26 Sudeste 0 -- -- 65
2018-04-05 22:00:00 10.7 21 Sudeste 25 Sudeste 0 -- -- 63
2018-04-05 21:00:00 12.8 9 Sur 18 Sudoeste 0 -- -- 47
2018-04-05 20:00:00 16.2 15 Sudoeste 28 Sudoeste 0 -- -- 38
2018-04-05 19:00:00 17 20 Sudoeste 31 Sudoeste 0 -- -- 33
2018-04-05 18:00:00 17.4 21 Sudoeste 32 Sur 0 -- -- 34
2018-04-05 17:00:00 16.8 16 Sudoeste 27 Sur 0 -- -- 33
2018-04-05 16:00:00 15.8 19 Sudoeste 29 Sudoeste 0 -- -- 43
2018-04-05 15:00:00 13.8 15 Sudoeste 31 Sudoeste 0 -- -- 53
2018-04-05 14:00:00 12.6 10 Sudoeste 23 Sudoeste 0 -- -- 58
2018-04-05 13:00:00 11 6 Oeste 22 Sudoeste 0 -- -- 62
2018-04-05 12:00:00 11 10 Oeste 15 Sudoeste 0 -- -- 62
2018-04-05 11:00:00 10.8 2 Oeste 10 Noroeste 0 -- -- 64
2018-04-05 10:00:00 8.2 2 Norte 16 Noroeste 0 -- -- 70
2018-04-05 09:00:00 5.5 8 Noroeste 16 Oeste 0 -- -- 83
2018-04-05 08:00:00 5.2 10 Noroeste 19 Noroeste 0 -- -- 84
2018-04-05 07:00:00 5.2 8 Noroeste 23 Noroeste 0 -- -- 84
2018-04-05 06:00:00 5.2 11 Noroeste 28 Noroeste 0 -- -- 87
2018-04-05 05:00:00 5.1 13 Noroeste 29 Noroeste 0 -- -- 91
2018-04-05 04:00:00 5.9 21 Noroeste 29 Noroeste 0 -- -- 89
2018-04-05 03:00:00 5.4 9 Noroeste 23 Noroeste 0 -- -- 90
2018-04-05 02:00:00 5.1 15 Noroeste 30 Noroeste 0 -- -- 90
2018-04-05 01:00:00 5.9 19 Noroeste 39 Noroeste 0 -- -- 86
2018-04-05 00:00:00 6.4 17 Noroeste 35 Noroeste 0 -- -- 86
2018-04-04 23:00:00 7.4 19 Noroeste 35 Noroeste 0 -- -- 79
2018-04-04 22:00:00 6.7 15 Noroeste 31 Oeste 0 -- -- 84
2018-04-04 21:00:00 7.5 19 Noroeste 47 Noroeste 0.2 -- -- 74
2018-04-04 20:00:00 8.4 23 Noroeste 51 Noroeste 0.2 -- -- 76
2018-04-04 19:00:00 8.4 18 Noroeste 53 Norte 0.4 -- -- 78
2018-04-04 18:00:00 10.3 28 Noroeste 53 Noroeste 0.2 -- -- 67
2018-04-04 17:00:00 9.3 20 Norte 58 Norte 0.2 -- -- 73
2018-04-04 16:00:00 7.7 41 Noroeste 67 Noroeste 0.2 -- -- 74
2018-04-04 15:00:00 7.7 27 Noroeste 57 Noroeste 0 -- -- 77
2018-04-04 14:00:00 9.4 26 Oeste 42 Noroeste 0 -- -- 65
2018-04-04 13:00:00 8.5 29 Oeste 47 Oeste 0 -- -- 73
2018-04-04 12:00:00 8 34 Oeste 52 Oeste 0 -- -- 71
2018-04-04 11:00:00 7.8 37 Oeste 51 Oeste 0 -- -- 75
2018-04-04 10:00:00 6.3 32 Oeste 48 Oeste 0 -- -- 80
2018-04-04 09:00:00 4.8 28 Oeste 51 Oeste 0 -- -- 84
2018-04-04 08:00:00 4.4 37 Oeste 48 Oeste 0 -- -- 86
2018-04-04 07:00:00 4.4 31 Oeste 48 Sudoeste 0 -- -- 84
2018-04-04 06:00:00 4.6 32 Oeste 42 Oeste 0.2 -- -- 87
2018-04-04 05:00:00 4.7 16 Oeste 26 Sudoeste 0 -- -- 88
2018-04-04 04:00:00 6 17 Oeste 32 Oeste 0.4 -- -- 86
2018-04-04 03:00:00 5.7 19 Oeste 33 Oeste 2 -- -- 90
2018-04-04 02:00:00 7.8 24 Oeste 37 Oeste 0 -- -- 75
2018-04-04 01:00:00 7.4 16 Sudoeste 48 Sudoeste 0 -- -- 77
2018-04-04 00:00:00 8.2 26 Sudoeste 55 Oeste 0 -- -- 74
2018-04-03 23:00:00 9 33 Oeste 51 Oeste 0 -- -- 67
2018-04-03 22:00:00 10 30 Oeste 56 Sudoeste 0 -- -- 60
2018-04-03 21:00:00 11.2 35 Oeste 69 Sudoeste 0 -- -- 50
2018-04-03 20:00:00 12.3 44 Sudoeste 69 Oeste 0 -- -- 44
2018-04-03 19:00:00 13.1 44 Oeste 69 Sudoeste 0 -- -- 42
2018-04-03 18:00:00 14.2 50 Sudoeste 70 Oeste 0 -- -- 41
2018-04-03 17:00:00 13.5 41 Oeste 64 Oeste 0 -- -- 43
2018-04-03 16:00:00 13.3 44 Oeste 67 Oeste 0 -- -- 46
2018-04-03 15:00:00 12.4 37 Oeste 69 Sudoeste 0 -- -- 51
2018-04-03 14:00:00 12.5 50 Oeste 71 Sudoeste 0 -- -- 51
2018-04-03 13:00:00 11.7 47 Sudoeste 65 Sudoeste 0 -- -- 57
2018-04-03 12:00:00 11.1 45 Sudoeste 65 Oeste 0 -- -- 61
2018-04-03 11:00:00 10 41 Oeste 59 Oeste 0 -- -- 70
2018-04-03 10:00:00 8.1 35 Oeste 63 Oeste 0 -- -- 80
2018-04-03 09:00:00 8.2 24 Oeste 45 Oeste 0 -- -- 77
2018-04-03 08:00:00 7.1 17 Oeste 31 Sudoeste 0 -- -- 85
2018-04-03 07:00:00 7.5 27 Sudoeste 52 Sudoeste 0 -- -- 91
2018-04-03 06:00:00 8 23 Sudoeste 32 Sudoeste 0 -- -- 90
2018-04-03 05:00:00 8 27 Sudoeste 36 Sudoeste 0.2 -- -- 89
2018-04-03 04:00:00 8.6 29 Sudoeste 41 Sudoeste 0 -- -- 86
2018-04-03 03:00:00 9 22 Sudoeste 37 Sudoeste 0 -- -- 79
2018-04-03 02:00:00 10 28 Sudoeste 38 Oeste 0 -- -- 72
2018-04-03 01:00:00 10.8 21 Oeste 35 Oeste 0 -- -- 63
2018-04-03 00:00:00 10.8 26 Sudoeste 31 Sudoeste 0 -- -- 54
2018-04-02 23:00:00 10.1 22 Sudoeste 28 Sudoeste 0 -- -- 56
2018-04-02 22:00:00 11.4 17 Sudoeste 30 Sudoeste 0 -- -- 52
2018-04-02 21:00:00 12.2 18 Oeste 32 Oeste 0 -- -- 49
2018-04-02 20:00:00 14.7 27 Oeste 43 Oeste 0 -- -- 42
2018-04-02 19:00:00 15.5 26 Oeste 47 Oeste 0 -- -- 42
2018-04-02 18:00:00 16 22 Oeste 44 Sudoeste 0 -- -- 42
2018-04-02 17:00:00 16 30 Oeste 40 Sudoeste 0 -- -- 41
2018-04-02 16:00:00 14 22 Sudoeste 39 Sudoeste 0 -- -- 44
2018-04-02 15:00:00 14.1 31 Sudoeste 41 Sudoeste 0 -- -- 40
2018-04-02 14:00:00 14.3 24 Sudoeste 34 Sudoeste 0 -- -- 42
2018-04-02 13:00:00 12.5 24 Sudoeste 34 Sudoeste 0 -- -- 43
2018-04-02 12:00:00 10.5 21 Sudoeste 31 Sudoeste 0 -- -- 45
2018-04-02 11:00:00 9.6 23 Sudoeste 30 Sudoeste 0 -- -- 44
2018-04-02 10:00:00 8 10 Sur 14 Sur 0 -- -- 66
2018-04-02 09:00:00 6.7 2 Sur 10 Sur 0 -- -- 73
2018-04-02 08:00:00 6.3 9 Sur 13 Sur 0 -- -- 71
2018-04-02 07:00:00 5.9 0 Calma 14 Sur 0 -- -- 73
2018-04-02 06:00:00 6.2 8 Sur 11 Sur 0 -- -- 71
2018-04-02 05:00:00 6.2 3 Sur 15 Sudeste 0 -- -- 70
2018-04-02 04:00:00 6.6 13 Sur 22 Sur 0 -- -- 67
2018-04-02 03:00:00 7.1 7 Sur 9 Sur 0 -- -- 64
2018-04-02 02:00:00 6.9 4 Sudeste 12 Sur 0 -- -- 66
2018-04-02 01:00:00 6.1 4 Este 26 Sur 0 -- -- 71
2018-04-02 00:00:00 8.9 12 Sur 20 Sur 0 -- -- 59
2018-04-01 23:00:00 8.9 8 Sur 26 Sudeste 0 -- -- 59
2018-04-01 22:00:00 9.6 22 Sudeste 29 Sudeste 0 -- -- 58
2018-04-01 21:00:00 11.2 15 Sudeste 21 Sudeste 0 -- -- 56
2018-04-01 20:00:00 13.6 9 Sudoeste 23 Sudoeste 0 -- -- 49
2018-04-01 19:00:00 14.7 20 Sudoeste 31 Sudoeste 0 -- -- 45
2018-04-01 18:00:00 15.7 20 Sudoeste 31 Sudoeste 0 -- -- 42
2018-04-01 17:00:00 16.3 14 Sudoeste 22 Sudoeste 0 -- -- 42
2018-04-01 16:00:00 15 15 Sudoeste 23 Sudoeste 0 -- -- 44
2018-04-01 15:00:00 14.1 15 Sudoeste 26 Sudoeste 0 -- -- 46
2018-04-01 14:00:00 12.7 13 Sudoeste 25 Sur 0 -- -- 48
2018-04-01 13:00:00 -- -- -- -- -- -- -- -- --
2018-04-01 12:00:00 -- -- -- -- -- -- -- -- --
2018-04-01 11:00:00 -- -- -- -- -- -- -- -- --
2018-04-01 10:00:00 -- -- -- -- -- -- -- -- --
2018-04-01 09:00:00 -- -- -- -- -- -- -- -- --
2018-04-01 08:00:00 -- -- -- -- -- -- -- -- --
2018-04-01 07:00:00 -- -- -- -- -- -- -- -- --
2018-04-01 06:00:00 -- -- -- -- -- -- -- -- --
2018-04-01 05:00:00 1.6 4 Norte 10 Nordeste 0 -- -- 75
2018-04-01 04:00:00 0.7 3 Nordeste 17 Noroeste 0 -- -- 80
2018-04-01 03:00:00 2 13 Norte 21 Noroeste 0 -- -- 74
2018-04-01 02:00:00 -- -- -- -- -- -- -- -- --
2018-04-01 01:00:00 3.1 9 Noroeste 19 Noroeste 0 -- -- 67
2018-04-01 00:00:00 3.8 11 Noroeste 18 Oeste 0 -- -- 59
2018-03-31 23:00:00 3.3 12 Noroeste 15 Noroeste 0 -- -- 61
2018-03-31 22:00:00 4.5 8 Noroeste 24 Noroeste 0 -- -- 56
2018-03-31 21:00:00 6.4 19 Noroeste 40 Noroeste 0 -- -- 49
2018-03-31 20:00:00 7.7 27 Noroeste 48 Noroeste 0 -- -- 44
2018-03-31 19:00:00 9.1 31 Noroeste 51 Noroeste 0 -- -- 39
2018-03-31 18:00:00 8.4 -- -- -- -- -- -- -- --
2018-03-31 17:00:00 8.8 36 Noroeste 56 Noroeste 0 -- -- 39
2018-03-31 16:00:00 8.1 35 Noroeste 60 Norte 0 -- -- 44
2018-03-31 15:00:00 7.3 37 Noroeste 58 Noroeste 0 -- -- 47
2018-03-31 14:00:00 5.6 -- -- -- -- 0 -- -- --
2018-03-31 13:00:00 -- -- -- -- -- -- -- -- --
2018-03-31 12:00:00 -- -- -- -- -- -- -- -- --
2018-03-31 11:00:00 -- -- -- -- -- -- -- -- --
2018-03-31 10:00:00 -- -- -- -- -- -- -- -- --
2018-03-31 09:00:00 1.4 -- -- -- -- 0 -- -- 86
2018-03-31 08:00:00 0.7 38 Noroeste 65 Noroeste 0 -- -- 89
2018-03-31 07:00:00 0.7 38 Noroeste 59 Noroeste 0 -- -- 89
2018-03-31 06:00:00 1 34 Noroeste 56 Noroeste 0 -- -- 87
2018-03-31 05:00:00 0.6 36 Noroeste 58 Noroeste 0.2 -- -- 90
2018-03-31 04:00:00 0.6 38 Noroeste 59 Noroeste 0 -- -- 91
2018-03-31 03:00:00 0.6 24 Noroeste 50 Noroeste 0.2 -- -- 90
2018-03-31 02:00:00 0.8 34 Noroeste 51 Noroeste 0 -- -- 87
2018-03-31 01:00:00 0 28 Oeste 54 Oeste 0.4 -- -- 95
2018-03-31 00:00:00 2.3 41 Sudoeste 54 Oeste 0 -- -- 84
2018-03-30 23:00:00 3.4 25 Oeste 58 Oeste 0 -- -- 73
2018-03-30 22:00:00 4.5 23 Sudoeste 42 Oeste 0 -- -- 61
2018-03-30 21:00:00 4.6 28 Sudoeste 52 Oeste 0 -- -- 60
2018-03-30 20:00:00 5.9 32 Oeste 51 Oeste 0 -- -- 56
2018-03-30 19:00:00 6.4 22 Oeste 49 Sudoeste 0 -- -- 53
2018-03-30 18:00:00 7 30 Oeste 44 Oeste 0 -- -- 47
2018-03-30 17:00:00 8 24 Oeste 39 Noroeste 0 -- -- 41
2018-03-30 16:00:00 8 22 Noroeste 38 Noroeste 0 -- -- 44
2018-03-30 15:00:00 6.1 29 Noroeste 42 Noroeste 0 -- -- 48
2018-03-30 14:00:00 5.3 27 Noroeste 50 Noroeste 0 -- -- 57
2018-03-30 13:00:00 4.3 31 Noroeste 55 Noroeste 0 -- -- 60
2018-03-30 12:00:00 3.4 30 Noroeste 59 Noroeste 0.4 -- -- 68
2018-03-30 11:00:00 1.9 40 Noroeste 58 Noroeste 0.8 -- -- 73
2018-03-30 10:00:00 0.7 33 Noroeste 49 Noroeste 0 -- -- 79
2018-03-30 09:00:00 0.9 22 Noroeste 40 Noroeste 0 -- -- 83
2018-03-30 08:00:00 0.3 17 Noroeste 35 Oeste 0 -- -- 93
2018-03-30 07:00:00 0.1 17 Noroeste 57 Noroeste 0 -- -- 96
2018-03-30 06:00:00 3.9 28 Sudoeste 51 Oeste 0 -- -- 78
2018-03-30 05:00:00 4.2 34 Oeste 65 Oeste 0 -- -- 74
2018-03-30 04:00:00 4.5 35 Sudoeste 62 Sudoeste 0 -- -- 71
2018-03-30 03:00:00 4.2 31 Sudoeste 53 Oeste 0 -- -- 71
2018-03-30 02:00:00 4.6 24 Oeste 47 Oeste 0 -- -- 70
2018-03-30 01:00:00 5.6 31 Oeste 46 Sudoeste 0 -- -- 65
2018-03-30 00:00:00 6.2 18 Sudoeste 31 Sudoeste 0 -- -- 57
2018-03-29 23:00:00 7.8 22 Oeste 33 Sudoeste 0 -- -- 44
2018-03-29 22:00:00 7.7 8 Oeste 21 Noroeste 0 -- -- 39
2018-03-29 21:00:00 8.9 12 Noroeste 31 Noroeste 0 -- -- 31
2018-03-29 20:00:00 10.7 18 Noroeste 32 Noroeste 0 -- -- 24
2018-03-29 19:00:00 12.1 15 Noroeste 30 Noroeste 0 -- -- 27
2018-03-29 18:00:00 10.8 15 Oeste 30 Noroeste 0 -- -- 35
2018-03-29 17:00:00 10.9 15 Noroeste 36 Norte 0 -- -- 34
2018-03-29 16:00:00 11.5 23 Noroeste 39 Noroeste 0 -- -- 38
2018-03-29 15:00:00 10.6 22 Noroeste 40 Noroeste 0 -- -- 44
2018-03-29 14:00:00 9.2 28 Noroeste 46 Noroeste 0 -- -- 48
2018-03-29 13:00:00 9.4 25 Noroeste 45 Noroeste 0 -- -- 50
2018-03-29 12:00:00 8.8 27 Noroeste 42 Noroeste 0 -- -- 53
2018-03-29 11:00:00 7.5 27 Noroeste 40 Noroeste 0 -- -- 62
2018-03-29 10:00:00 6.8 25 Noroeste 37 Noroeste 0 -- -- 72
2018-03-29 09:00:00 6.2 9 Oeste 28 Noroeste 0 -- -- 81
2018-03-29 08:00:00 4.7 12 Noroeste 17 Noroeste 0 -- -- 89
2018-03-29 07:00:00 5.8 13 Noroeste 19 Noroeste 0 -- -- 89
2018-03-29 06:00:00 6.5 15 Noroeste 25 Noroeste 0 -- -- 86
2018-03-29 05:00:00 6.3 19 Noroeste 36 Noroeste 0 -- -- 87
2018-03-29 04:00:00 6.6 15 Noroeste 28 Noroeste 0 -- -- 89
2018-03-29 03:00:00 6.9 15 Norte 45 Norte 0 -- -- 85
2018-03-29 02:00:00 7.2 37 Norte 51 Norte 0 -- -- 82
2018-03-29 01:00:00 8.4 30 Norte 40 Norte 0 -- -- 76
2018-03-29 00:00:00 9.1 18 Noroeste 33 Noroeste 0 -- -- 72
2018-03-28 23:00:00 9.9 20 Noroeste 44 Noroeste 0 -- -- 66
2018-03-28 22:00:00 11.2 26 Norte 33 Noroeste 0 -- -- 49
2018-03-28 21:00:00 12.5 21 Noroeste 45 Noroeste 0 -- -- 46
2018-03-28 20:00:00 14.5 28 Noroeste 50 Noroeste 0 -- -- 39
2018-03-28 19:00:00 16.5 33 Noroeste 54 Noroeste 0 -- -- 35
2018-03-28 18:00:00 16.9 32 Noroeste 53 Noroeste 0 -- -- 29
2018-03-28 17:00:00 17.5 37 Noroeste 53 Noroeste 0 -- -- 27
2018-03-28 16:00:00 17.6 35 Noroeste 51 Noroeste 0 -- -- 24
2018-03-28 15:00:00 17.3 33 Noroeste 53 Noroeste 0 -- -- 25
2018-03-28 14:00:00 16.3 26 Noroeste 45 Noroeste 0 -- -- 29
2018-03-28 13:00:00 14.3 31 Noroeste 46 Noroeste 0 -- -- 36
2018-03-28 12:00:00 12.6 33 Noroeste 52 Noroeste 0 -- -- 38
2018-03-28 11:00:00 11.5 25 Noroeste 49 Noroeste 0 -- -- 46
2018-03-28 10:00:00 9.4 20 Noroeste 31 Noroeste 0 -- -- 57
2018-03-28 09:00:00 8.1 2 Sur 6 Este 0 -- -- 69
2018-03-28 08:00:00 4.6 3 Este 19 Noroeste 0 -- -- 82
2018-03-28 07:00:00 5.8 10 Noroeste 20 Noroeste 0 -- -- 76
2018-03-28 06:00:00 5.9 5 Sudoeste 19 Sudoeste 0 -- -- 78
2018-03-28 05:00:00 5.5 0 Calma 13 Sudeste 0 -- -- 81
2018-03-28 04:00:00 5.8 4 Norte 13 Norte 0 -- -- 79
2018-03-28 03:00:00 6.3 2 Oeste 9 Sudoeste 0 -- -- 79
2018-03-28 02:00:00 6.2 7 Sur 19 Norte 0 -- -- 81
2018-03-28 01:00:00 7 14 Nordeste 18 Norte 0 -- -- 79
2018-03-28 00:00:00 8.1 8 Norte 27 Noroeste 0 -- -- 73
2018-03-27 23:00:00 9.6 20 Noroeste 28 Noroeste 0 -- -- 68
2018-03-27 22:00:00 10.4 23 Noroeste 36 Noroeste 0 -- -- 66
2018-03-27 21:00:00 11.7 22 Noroeste 31 Noroeste 0 -- -- 60
2018-03-27 20:00:00 13.9 24 Noroeste 39 Noroeste 0 -- -- 55
2018-03-27 19:00:00 15.3 23 Noroeste 34 Noroeste 0 -- -- 52
2018-03-27 18:00:00 15.7 22 Noroeste 37 Noroeste 0 -- -- 51
2018-03-27 17:00:00 15.5 18 Noroeste 31 Oeste 0 -- -- 52
2018-03-27 16:00:00 14.7 15 Oeste 30 Noroeste 0 -- -- 56
2018-03-27 15:00:00 13.3 18 Noroeste 33 Norte 0 -- -- 61
2018-03-27 14:00:00 11.5 24 Norte 36 Noroeste 0 -- -- 64
2018-03-27 13:00:00 9.5 25 Noroeste 40 Noroeste 0 -- -- 72
2018-03-27 12:00:00 8.5 28 Noroeste 40 Noroeste 0 -- -- 76
2018-03-27 11:00:00 7.3 27 Noroeste 39 Noroeste 0 -- -- 80
2018-03-27 10:00:00 5.8 26 Noroeste 35 Noroeste 0 -- -- 85
2018-03-27 09:00:00 4.7 13 Noroeste 23 Oeste 0 -- -- 84
2018-03-27 08:00:00 3.8 10 Noroeste 22 Noroeste 0 -- -- 83
2018-03-27 07:00:00 3.9 16 Noroeste 24 Noroeste 0 -- -- 82
2018-03-27 06:00:00 3.7 14 Oeste 19 Oeste 0 -- -- 81
2018-03-27 05:00:00 4.6 5 Noroeste 17 Noroeste 0 -- -- 76
2018-03-27 04:00:00 4.2 0 Calma 4 Noroeste 0 -- -- 78
2018-03-27 03:00:00 4.3 0 Calma 8 Norte 0 -- -- 80
2018-03-27 02:00:00 4.6 7 Norte 15 Norte 0 -- -- 74
2018-03-27 01:00:00 4.7 11 Norte 24 Norte 0 -- -- 72
2018-03-27 00:00:00 5 20 Norte 25 Norte 0 -- -- 72
2018-03-26 23:00:00 4.6 12 Nordeste 21 Norte 0 -- -- 72
2018-03-26 22:00:00 5.4 13 Norte 20 Norte 0 -- -- 68
2018-03-26 21:00:00 5.6 9 Norte 31 Norte 0 -- -- 64
2018-03-26 20:00:00 7.2 27 Norte 40 Norte 0 -- -- 55
2018-03-26 19:00:00 8.1 29 Norte 48 Norte 0 -- -- 49
2018-03-26 18:00:00 8.7 36 Norte 48 Norte 0 -- -- 46
2018-03-26 17:00:00 9 33 Norte 49 Norte 0 -- -- 46
2018-03-26 16:00:00 8.7 35 Norte 49 Norte 0 -- -- 45
2018-03-26 15:00:00 8.9 34 Norte 50 Norte 0 -- -- 48
2018-03-26 14:00:00 8.8 32 Norte 46 Norte 0 -- -- 51
2018-03-26 13:00:00 7.3 34 Norte 48 Norte 0 -- -- 59
2018-03-26 12:00:00 6 33 Norte 54 Norte 0 -- -- 63
2018-03-26 11:00:00 5.5 45 Norte 57 Norte 0 -- -- 69
2018-03-26 10:00:00 4.3 25 Norte 34 Norte 0 -- -- 84
2018-03-26 09:00:00 3.5 27 Norte 39 Norte 0 -- -- 83
2018-03-26 08:00:00 1.6 31 Norte 40 Norte 0 -- -- 90
2018-03-26 07:00:00 1.8 29 Noroeste 40 Noroeste 0 -- -- 90
2018-03-26 06:00:00 0.8 18 Noroeste 29 Noroeste 0 -- -- 91
2018-03-26 05:00:00 1.2 14 Noroeste 30 Noroeste 0 -- -- 90
2018-03-26 04:00:00 1.8 19 Noroeste 37 Noroeste 0 -- -- 88
2018-03-26 03:00:00 1.2 12 Noroeste 21 Noroeste 0 -- -- 91
2018-03-26 02:00:00 1 10 Norte 20 Norte 0 -- -- 91
2018-03-26 01:00:00 1.1 11 Norte 18 Norte 0 -- -- 90
2018-03-26 00:00:00 1.9 6 Noroeste 22 Norte 0 -- -- 85
2018-03-25 23:00:00 2.4 16 Norte 27 Norte 0 -- -- 81
2018-03-25 22:00:00 3.8 15 Norte 23 Norte 0 -- -- 77
2018-03-25 21:00:00 4.6 15 Norte 25 Norte 0 -- -- 73
2018-03-25 20:00:00 5.4 16 Noroeste 37 Norte 0 -- -- 70
2018-03-25 19:00:00 5.9 27 Norte 41 Norte 0 -- -- 60
2018-03-25 18:00:00 6.6 32 Norte 49 Norte 0 -- -- 60
2018-03-25 17:00:00 4.2 27 Noroeste 48 Noroeste 0 -- -- 79
2018-03-25 16:00:00 7 18 Noroeste 37 Noroeste 0 -- -- 59
2018-03-25 15:00:00 6.4 17 Noroeste 32 Noroeste 0 -- -- 69
2018-03-25 14:00:00 5.3 18 Noroeste 30 Noroeste 0 -- -- 67
2018-03-25 13:00:00 4.3 19 Noroeste 32 Noroeste 0 -- -- 70
2018-03-25 12:00:00 4.1 19 Noroeste 31 Noroeste 0 -- -- 75
2018-03-25 11:00:00 2.6 24 Noroeste 38 Noroeste 0 -- -- 76
2018-03-25 10:00:00 1.6 22 Noroeste 34 Noroeste 0 -- -- 80
2018-03-25 09:00:00 1.7 18 Noroeste 27 Noroeste 0 -- -- 80
2018-03-25 08:00:00 0.8 15 Noroeste 41 Noroeste 0 -- -- 84
2018-03-25 07:00:00 1.1 31 Noroeste 48 Noroeste 0 -- -- 84
2018-03-25 06:00:00 1.3 29 Noroeste 42 Noroeste 0 -- -- 84
2018-03-25 05:00:00 1.5 26 Noroeste 43 Noroeste 0 -- -- 82
2018-03-25 03:00:00 1.3 16 Noroeste 48 Noroeste 0 -- -- 82
2018-03-25 01:00:00 1.8 25 Noroeste 42 Noroeste 0 -- -- 83
2018-03-25 00:00:00 2.3 20 Noroeste 39 Noroeste 0 -- -- 87
2018-03-24 23:00:00 3.2 17 Noroeste 37 Noroeste 0 -- -- 86
2018-03-24 22:00:00 3.1 19 Noroeste 38 Noroeste 0 -- -- 83
2018-03-24 21:00:00 3.7 22 Noroeste 39 Noroeste 0 -- -- 78
2018-03-24 20:00:00 3.9 27 Noroeste 50 Noroeste 0 -- -- 74
2018-03-24 19:00:00 5.7 31 Noroeste 58 Noroeste 0 -- -- 67
2018-03-24 18:00:00 7 32 Noroeste 55 Noroeste 0 -- -- 64
2018-03-24 17:00:00 6.9 36 Noroeste 55 Noroeste 0 -- -- 68
2018-03-24 16:00:00 5.9 29 Noroeste 60 Noroeste 0.6 -- -- 75
2018-03-24 15:00:00 5 34 Noroeste 57 Noroeste 0 -- -- 75
2018-03-24 14:00:00 5.1 36 Noroeste 61 Noroeste 0 -- -- 75
2018-03-24 13:00:00 3.4 45 Noroeste 62 Noroeste 0 -- -- 74
2018-03-24 12:00:00 3 37 Noroeste 70 Noroeste 0 -- -- 76
2018-03-24 11:00:00 1.4 44 Noroeste 61 Noroeste 0 -- -- 80
2018-03-24 10:00:00 1.3 36 Noroeste 54 Noroeste 0 -- -- 80
2018-03-24 09:00:00 0.5 37 Noroeste 55 Noroeste 0 -- -- 82
2018-03-24 08:00:00 0.2 30 Noroeste 45 Noroeste 0 -- -- 83
2018-03-24 07:00:00 0 25 Noroeste 49 Noroeste 0 -- -- 83
2018-03-24 06:00:00 0 29 Noroeste 44 Noroeste 0 -- -- 84
2018-03-24 05:00:00 0.3 32 Noroeste 46 Noroeste 0 -- -- 85
2018-03-24 04:00:00 1.1 35 Noroeste 54 Noroeste 0 -- -- 86
2018-03-24 03:00:00 1.7 41 Noroeste 62 Noroeste 0 -- -- 88
2018-03-24 02:00:00 2.1 32 Noroeste 91 Noroeste 1.4 -- -- 93
2018-03-24 01:00:00 5.8 15 Oeste 28 Oeste 1.2 -- -- 95
2018-03-24 00:00:00 5.5 15 Oeste 49 Oeste 1.2 -- -- 92
2018-03-23 23:00:00 6.4 23 Oeste 39 Oeste 0.4 -- -- 93
2018-03-23 22:00:00 6.7 24 Oeste 34 Sudoeste 0 -- -- 91
2018-03-23 21:00:00 7.1 24 Oeste 35 Oeste 0 -- -- 90
2018-03-23 20:00:00 7.2 16 Oeste 31 Oeste 0 -- -- 90
2018-03-23 19:00:00 8 21 Sudoeste 43 Oeste 0 -- -- 81
2018-03-23 18:00:00 8.9 30 Noroeste 47 Noroeste 0 -- -- 79
2018-03-23 17:00:00 9.7 22 Noroeste 37 Noroeste 0 -- -- 73
2018-03-23 16:00:00 10.4 25 Noroeste 39 Noroeste 0 -- -- 66
2018-03-23 15:00:00 8.7 20 Noroeste 40 Noroeste 0 -- -- 67
2018-03-23 14:00:00 8.3 26 Noroeste 45 Noroeste 0 -- -- 65
2018-03-23 13:00:00 8 30 Noroeste 44 Noroeste 0 -- -- 61
2018-03-23 12:00:00 7.7 32 Noroeste 46 Noroeste 0 -- -- 63
2018-03-23 11:00:00 6.5 31 Noroeste 50 Noroeste 0 -- -- 66
2018-03-23 10:00:00 5.5 30 Noroeste 48 Noroeste 0 -- -- 67
2018-03-23 09:00:00 3.7 27 Noroeste 39 Noroeste 0 -- -- 70
2018-03-23 08:00:00 2.3 8 Noroeste 27 Noroeste 0 -- -- 72
2018-03-23 07:00:00 2.4 18 Noroeste 31 Noroeste 0 -- -- 70
2018-03-23 06:00:00 2.1 19 Noroeste 31 Noroeste 0 -- -- 69
2018-03-23 05:00:00 1.4 19 Noroeste 30 Norte 0 -- -- 70
2018-03-23 04:00:00 0.4 23 Norte 34 Noroeste 0 -- -- 73
2018-03-23 03:00:00 1.2 29 Noroeste 49 Noroeste 0 -- -- 68
2018-03-23 02:00:00 1.6 35 Noroeste 45 Noroeste 0 -- -- 65
2018-03-23 01:00:00 1.9 31 Noroeste 45 Noroeste 0 -- -- 64
2018-03-23 00:00:00 1.9 29 Noroeste 44 Noroeste 0 -- -- 66